Time;durP1;ratioP1;P1;durP2;ratioP2;P2;SDS_P1;SDS_P2;PMS_P1;PMS_P2;Temp;Humidity;BMP_temperature;BMP_pressure;BME280_temperature;BME280_humidity;BME280_pressure;Samples;Min_cycle;Max_cycle;Signal;HPM_P1;HPM_P2
2023/01/31 05:22:33;;;;;;;12.57;5.20;;;;;;;1.17;100.00;101346.47;5088966;28;20328;-67
2023/01/31 05:24:58;;;;;;;12.07;5.43;;;;;;;1.19;100.00;101349.88;5089079;28;20120;-67
2023/01/31 05:27:24;;;;;;;18.67;6.45;;;;;;;1.15;100.00;101361.47;5088642;28;20129;-67
2023/01/31 05:29:49;;;;;;;16.40;7.15;;;;;;;1.18;100.00;101355.22;5118380;22;20039;-63
2023/01/31 05:32:16;;;;;;;17.88;6.93;;;;;;;1.18;100.00;101355.22;5109301;28;20042;-62
2023/01/31 05:34:41;;;;;;;13.03;7.30;;;;;;;1.14;100.00;101351.91;5109319;28;20044;-63
2023/01/31 05:37:07;;;;;;;16.73;8.60;;;;;;;1.15;100.00;101356.22;5108981;28;20119;-62
2023/01/31 05:39:32;;;;;;;14.73;5.75;;;;;;;1.20;100.00;101358.59;5109099;28;20146;-63
2023/01/31 05:41:58;;;;;;;28.52;8.32;;;;;;;1.19;100.00;101352.50;5109192;28;20040;-63
2023/01/31 05:44:23;;;;;;;23.05;7.43;;;;;;;1.29;100.00;101365.94;5108045;28;20042;-63
2023/01/31 05:46:49;;;;;;;22.08;7.72;;;;;;;1.34;100.00;101369.16;5109009;28;20055;-63
2023/01/31 05:49:14;;;;;;;12.90;6.15;;;;;;;1.46;100.00;101372.88;5108723;28;20048;-63
2023/01/31 05:51:40;;;;;;;18.77;10.02;;;;;;;1.50;100.00;101369.13;5109065;28;20095;-64
2023/01/31 05:54:06;;;;;;;30.23;6.60;;;;;;;1.50;100.00;101375.25;5108891;28;20059;-64
2023/01/31 05:56:31;;;;;;;18.70;7.22;;;;;;;1.55;100.00;101372.34;5108999;28;20457;-62
2023/01/31 05:58:57;;;;;;;24.85;7.47;;;;;;;1.56;100.00;101366.16;5090226;28;20084;-64
2023/01/31 06:01:25;;;;;;;20.27;8.25;;;;;;;1.57;100.00;101367.88;5108749;28;20388;-64
2023/01/31 06:03:50;;;;;;;;;;;;;;;1.61;100.00;101378.09;5109249;28;20646;-63
2023/01/31 06:06:16;;;;;;;19.30;6.35;;;;;;;1.61;100.00;101375.47;5108760;28;19964;-63
2023/01/31 06:08:42;;;;;;;17.85;6.63;;;;;;;1.65;100.00;101385.81;5108302;28;20032;-63
2023/01/31 06:11:10;;;;;;;18.58;7.90;;;;;;;1.69;100.00;101382.06;5108680;28;20388;-63
2023/01/31 06:13:36;;;;;;;22.00;7.85;;;;;;;1.70;100.00;101387.25;5108672;28;20051;-63
2023/01/31 06:16:01;;;;;;;18.02;8.38;;;;;;;1.69;100.00;101379.44;5108556;28;20043;-63
2023/01/31 06:18:28;;;;;;;27.90;9.95;;;;;;;1.75;100.00;101384.34;5108124;28;20032;-63
2023/01/31 06:20:53;;;;;;;21.70;7.13;;;;;;;1.76;100.00;101379.00;5108369;28;20040;-63
2023/01/31 06:23:19;;;;;;;24.60;5.57;;;;;;;1.75;100.00;101385.16;5108630;28;20066;-64
2023/01/31 06:25:50;;;;;;;13.88;6.43;;;;;;;1.72;100.00;101366.13;5108459;28;20032;-61
2023/01/31 06:28:16;;;;;;;24.73;9.15;;;;;;;1.76;100.00;101373.75;5107709;28;20040;-62
2023/01/31 06:30:41;;;;;;;24.35;8.57;;;;;;;1.75;100.00;101376.44;5108329;28;20035;-60
2023/01/31 06:33:07;;;;;;;26.55;8.38;;;;;;;1.80;100.00;101385.75;5099258;28;20115;-62
2023/01/31 06:35:33;;;;;;;22.38;8.50;;;;;;;1.77;100.00;101383.31;5094590;28;20423;-61
2023/01/31 06:37:58;;;;;;;26.08;8.23;;;;;;;1.85;100.00;101385.50;5094063;28;20032;-62
2023/01/31 06:40:24;;;;;;;19.40;7.47;;;;;;;1.84;100.00;101384.66;5094587;28;20047;-62
2023/01/31 06:42:49;;;;;;;13.80;7.03;;;;;;;1.77;100.00;101379.84;5094661;28;20047;-63
2023/01/31 06:45:15;;;;;;;23.60;8.45;;;;;;;1.81;100.00;101379.56;5094231;28;20042;-62
2023/01/31 06:47:40;;;;;;;23.35;8.07;;;;;;;1.86;100.00;101379.31;5094128;28;20435;-63
2023/01/31 06:50:06;;;;;;;19.35;7.20;;;;;;;1.92;100.00;101380.72;5075980;28;20039;-63
2023/01/31 06:52:31;;;;;;;18.30;7.65;;;;;;;1.96;100.00;101388.34;5094286;28;20118;-63
2023/01/31 06:54:57;;;;;;;25.40;9.23;;;;;;;1.96;100.00;101390.13;5094160;28;20097;-63
2023/01/31 06:57:22;;;;;;;22.17;8.75;;;;;;;1.98;100.00;101393.50;5093929;28;20044;-61
2023/01/31 06:59:47;;;;;;;23.25;7.22;;;;;;;2.04;100.00;101387.91;5093963;28;20117;-63
2023/01/31 07:02:13;;;;;;;22.05;7.75;;;;;;;2.03;100.00;101396.72;5094001;28;20055;-64
2023/01/31 07:04:38;;;;;;;19.63;6.97;;;;;;;2.10;100.00;101387.53;5093954;28;20105;-62
2023/01/31 07:07:04;;;;;;;23.90;7.47;;;;;;;2.11;100.00;101389.22;5093867;28;20130;-63
2023/01/31 07:09:29;;;;;;;23.73;7.47;;;;;;;2.13;100.00;101384.72;5075576;28;20169;-63
2023/01/31 07:11:54;;;;;;;20.10;7.50;;;;;;;2.08;100.00;101379.72;5093938;28;20035;-63
2023/01/31 07:14:20;;;;;;;18.98;8.02;;;;;;;2.12;100.00;101381.25;5093789;28;20044;-64
2023/01/31 07:16:45;;;;;;;13.93;6.78;;;;;;;2.16;100.00;101379.28;5093769;28;20089;-63
2023/01/31 07:19:11;;;;;;;19.48;7.47;;;;;;;2.19;100.00;101384.34;5093358;28;20040;-63
2023/01/31 07:21:36;;;;;;;15.48;5.70;;;;;;;2.19;100.00;101373.81;5093697;28;20032;-64
2023/01/31 07:24:02;;;;;;;15.93;6.38;;;;;;;2.27;100.00;101382.09;5093778;28;20094;-64
2023/01/31 07:26:29;;;;;;;17.38;7.13;;;;;;;2.29;100.00;101387.28;5093633;28;20155;-64
2023/01/31 07:28:54;;;;;;;12.38;5.70;;;;;;;2.27;100.00;101376.84;5093213;28;20044;-61
2023/01/31 07:31:20;;;;;;;17.13;6.30;;;;;;;2.26;100.00;101375.16;5093536;28;20085;-64
2023/01/31 07:33:46;;;;;;;18.85;7.88;;;;;;;2.18;100.00;101374.78;5093511;28;20037;-63
2023/01/31 07:36:13;;;;;;;15.63;5.95;;;;;;;2.26;100.00;101382.19;5093397;28;20114;-63
2023/01/31 07:38:39;;;;;;;15.77;6.07;;;;;;;2.26;100.00;101387.44;5093109;28;20609;-62
2023/01/31 07:41:05;;;;;;;10.85;4.90;;;;;;;2.21;100.00;101394.75;5093175;28;20136;-63
2023/01/31 07:43:31;;;;;;;11.75;5.38;;;;;;;2.22;100.00;101391.19;5092943;28;20071;-63
2023/01/31 07:45:56;;;;;;;13.65;5.15;;;;;;;2.16;100.00;101390.66;5092708;28;20166;-62
2023/01/31 07:48:25;;;;;;;9.43;4.43;;;;;;;2.18;100.00;101395.81;5092866;28;20047;-64
2023/01/31 07:50:52;;;;;;;13.85;5.90;;;;;;;2.20;100.00;101404.44;5093261;28;20071;-61
2023/01/31 07:53:18;;;;;;;14.23;6.20;;;;;;;2.18;100.00;101396.66;5093341;28;20606;-62
2023/01/31 07:55:47;;;;;;;10.02;5.38;;;;;;;2.13;100.00;101379.44;5093092;28;20031;-62
2023/01/31 07:58:15;;;;;;;11.93;5.32;;;;;;;2.10;100.00;101377.88;5092628;28;20040;-63
2023/01/31 08:03:33;;;;;;;12.43;6.72;;;;;;;2.00;100.00;101379.34;5092968;28;20067;-62
2023/01/31 08:06:08;;;;;;;11.02;6.00;;;;;;;1.96;100.00;101384.88;5093139;28;20040;-63
2023/01/31 08:08:35;;;;;;;11.55;5.40;;;;;;;1.89;100.00;101374.72;5092130;28;20032;-63
2023/01/31 08:11:00;;;;;;;7.65;4.40;;;;;;;1.89;100.00;101373.84;5072870;28;20040;-64
2023/01/31 08:13:26;;;;;;;13.70;5.07;;;;;;;1.93;100.00;101378.00;5072560;28;20098;-65
2023/01/31 08:15:52;;;;;;;16.25;6.00;;;;;;;1.85;100.00;101383.72;5072482;28;20047;-64
2023/01/31 08:18:18;;;;;;;11.85;5.15;;;;;;;1.92;100.00;101392.09;5071996;28;20460;-65
2023/01/31 08:20:43;;;;;;;8.15;5.07;;;;;;;1.94;100.00;101384.09;5072445;28;20043;-65
2023/01/31 08:23:09;;;;;;;11.00;5.90;;;;;;;2.03;100.00;101381.78;5072384;28;20401;-65
2023/01/31 08:25:35;;;;;;;10.93;5.03;;;;;;;2.11;100.00;101382.19;5072386;28;20386;-65
2023/01/31 08:28:00;;;;;;;11.93;4.78;;;;;;;2.14;100.00;101386.41;5071844;28;20047;-65
2023/01/31 08:30:27;;;;;;;9.35;4.88;;;;;;;2.12;100.00;101383.88;5072093;28;20109;-65
2023/01/31 08:32:52;;;;;;;11.02;5.05;;;;;;;2.19;100.00;101386.97;5072094;28;20047;-65
2023/01/31 08:35:17;;;;;;;12.38;5.22;;;;;;;2.21;100.00;101400.88;5054225;28;20037;-65
2023/01/31 08:37:43;;;;;;;6.53;4.47;;;;;;;2.20;100.00;101399.19;5053721;28;20366;-64
2023/01/31 08:40:09;;;;;;;17.33;5.78;;;;;;;2.26;100.00;101398.81;5072049;28;20032;-66
2023/01/31 08:42:34;;;;;;;7.32;4.03;;;;;;;2.27;100.00;101397.03;5054124;28;20382;-66
2023/01/31 08:44:59;;;;;;;9.73;4.53;;;;;;;2.28;100.00;101401.34;5071880;28;20039;-65
2023/01/31 08:47:25;;;;;;;8.35;3.58;;;;;;;2.35;100.00;101402.69;5071792;28;20122;-68
2023/01/31 08:49:50;;;;;;;10.07;5.78;;;;;;;2.41;100.00;101400.53;5071896;28;20059;-67
2023/01/31 08:52:15;;;;;;;11.05;4.57;;;;;;;2.48;100.00;101405.41;5071887;28;20032;-66
2023/01/31 08:54:41;;;;;;;8.88;4.45;;;;;;;2.49;100.00;101399.22;5071965;28;20090;-66
2023/01/31 08:57:06;;;;;;;8.00;3.92;;;;;;;2.52;100.00;101399.03;5071471;28;20084;-65
2023/01/31 08:59:32;;;;;;;9.57;4.93;;;;;;;2.54;100.00;101395.34;5071627;28;20449;-59
2023/01/31 09:01:57;;;;;;;9.73;4.47;;;;;;;2.65;100.00;101394.69;5071738;28;20086;-60
2023/01/31 09:04:22;;;;;;;11.77;3.90;;;;;;;2.77;100.00;101396.59;5071848;28;20033;-54
2023/01/31 09:06:48;;;;;;;10.00;4.55;;;;;;;2.90;100.00;101394.03;5071588;28;20040;-54
2023/01/31 09:09:14;;;;;;;7.55;4.28;;;;;;;3.03;100.00;101396.75;5071394;28;20032;-55
2023/01/31 09:11:39;;;;;;;10.18;4.38;;;;;;;3.04;100.00;101390.53;5053941;28;20067;-57
2023/01/31 09:14:05;;;;;;;10.63;4.50;;;;;;;3.09;100.00;101396.34;5071687;28;20047;-59
2023/01/31 09:16:30;;;;;;;13.30;5.32;;;;;;;3.05;100.00;101392.22;5071570;28;20028;-53
2023/01/31 09:18:56;;;;;;;7.28;4.10;;;;;;;3.06;100.00;101392.09;5071245;28;20131;-66
2023/01/31 09:21:22;;;;;;;7.05;3.63;;;;;;;3.14;100.00;101408.28;5081360;28;20087;-66
2023/01/31 09:23:54;;;;;;;8.90;4.32;;;;;;;3.09;99.84;101405.09;5091862;28;20047;-64
2023/01/31 09:26:19;;;;;;;9.13;4.35;;;;;;;3.12;99.50;101412.78;5091026;28;20096;-66
2023/01/31 09:28:45;;;;;;;14.60;5.10;;;;;;;3.10;99.47;101401.50;5090222;28;20473;-65
2023/01/31 09:31:12;;;;;;;7.70;4.15;;;;;;;3.07;99.53;101400.88;5091259;28;20126;-66
2023/01/31 09:33:38;;;;;;;6.57;3.42;;;;;;;3.09;99.33;101401.63;5091569;28;20067;-66
2023/01/31 09:36:16;;;;;;;7.88;3.83;;;;;;;3.07;99.78;101398.25;5091783;28;20067;-67
2023/01/31 09:38:41;;;;;;;7.38;3.70;;;;;;;3.15;100.00;101396.81;5090485;28;20432;-65
2023/01/31 09:41:37;;;;;;;7.45;4.07;;;;;;;3.17;99.70;101401.97;5091222;28;20032;-65
2023/01/31 09:44:10;;;;;;;9.25;3.92;;;;;;;3.13;99.67;101411.88;5084584;28;20076;-65
2023/01/31 09:46:40;;;;;;;7.40;3.85;;;;;;;3.13;99.69;101406.59;5091405;28;20036;-66
2023/01/31 09:49:13;;;;;;;7.22;3.70;;;;;;;3.09;100.00;101404.25;5090276;28;20128;-66
2023/01/31 09:51:39;;;;;;;8.52;4.07;;;;;;;3.15;99.41;101401.22;5091469;28;20435;-65
2023/01/31 09:54:14;;;;;;;7.57;3.30;;;;;;;3.22;99.59;101399.91;5091259;28;20027;-64
2023/01/31 09:56:59;;;;;;;7.90;3.75;;;;;;;3.41;98.62;101410.09;5091508;28;20119;-66
2023/01/31 09:59:41;;;;;;;8.93;4.75;;;;;;;3.46;98.82;101416.78;5090743;28;20035;-63
2023/01/31 10:02:27;;;;;;;12.30;4.35;;;;;;;3.55;97.96;101417.94;5091272;28;20040;-66
2023/01/31 10:05:02;;;;;;;12.80;4.90;;;;;;;3.72;96.95;101420.34;5091452;28;20066;-64
2023/01/31 10:07:35;;;;;;;8.85;3.80;;;;;;;3.81;96.90;101416.25;5073476;28;20441;-66
2023/01/31 10:10:19;;;;;;;10.00;4.00;;;;;;;3.87;95.93;101413.19;5095159;28;20032;-66
2023/01/31 10:12:53;;;;;;;9.68;4.30;;;;;;;3.86;95.05;101406.25;5095273;28;20040;-66
2023/01/31 10:15:41;;;;;;;6.60;3.97;;;;;;;3.92;95.53;101400.56;5095095;28;20032;-64
2023/01/31 10:18:16;;;;;;;10.70;3.40;;;;;;;3.97;95.64;101387.91;5094947;28;20097;-65
2023/01/31 10:20:49;;;;;;;8.98;3.38;;;;;;;3.99;95.20;101380.75;5094923;28;20042;-64
2023/01/31 10:23:24;;;;;;;13.98;5.10;;;;;;;4.15;94.79;101384.97;5076952;28;20063;-65
2023/01/31 10:26:11;;;;;;;7.35;3.28;;;;;;;4.58;93.08;101385.53;5094872;28;20439;-65
2023/01/31 10:28:52;;;;;;;;;;;;;;;4.76;89.73;101392.16;5094978;28;20032;-65
2023/01/31 10:31:31;;;;;;;7.40;3.47;;;;;;;4.76;89.08;101397.44;5094740;28;20459;-65
2023/01/31 10:34:11;;;;;;;5.28;3.45;;;;;;;4.60;88.71;101400.28;5094664;28;20378;-65
2023/01/31 10:36:45;;;;;;;6.53;3.30;;;;;;;4.52;89.21;101401.78;5094670;28;20117;-64
2023/01/31 10:39:14;;;;;;;6.18;3.10;;;;;;;4.34;90.23;101388.06;5094466;28;20032;-65
2023/01/31 10:42:01;;;;;;;6.63;3.97;;;;;;;4.43;91.39;101397.13;5094785;28;20043;-65
2023/01/31 10:44:33;;;;;;;7.50;3.22;;;;;;;4.33;91.42;101383.72;5094710;28;20032;-64
2023/01/31 10:46:59;;;;;;;9.32;3.50;;;;;;;4.23;90.64;101378.22;5094319;28;20046;-63
2023/01/31 10:49:26;;;;;;;6.43;4.03;;;;;;;4.35;91.24;101371.28;5094377;28;20044;-65
2023/01/31 10:52:17;;;;;;;5.70;3.60;;;;;;;4.92;88.86;101362.84;5094572;28;20373;-65
2023/01/31 10:54:58;;;;;;;9.45;3.97;;;;;;;5.68;84.10;101351.97;5094587;28;20035;-65
2023/01/31 10:57:23;;;;;;;5.20;2.97;;;;;;;6.11;80.69;101348.72;5093993;28;20059;-65
2023/01/31 10:59:50;;;;;;;7.22;3.10;;;;;;;6.34;79.38;101346.13;5059709;28;20473;-65
2023/01/31 11:02:25;;;;;;;8.23;3.72;;;;;;;6.32;76.52;101332.16;5093883;28;20512;-64
2023/01/31 11:04:55;;;;;;;6.68;3.13;;;;;;;6.43;77.17;101325.06;5093701;28;20552;-64
2023/01/31 11:07:22;;;;;;;5.07;2.40;;;;;;;6.02;76.83;101323.00;5093923;28;20048;-64
2023/01/31 11:09:52;;;;;;;4.90;2.85;;;;;;;5.82;78.44;101305.13;5093927;28;20047;-64
2023/01/31 11:12:17;;;;;;;7.05;3.88;;;;;;;5.44;80.91;101304.41;5093982;28;20035;-63
2023/01/31 11:14:43;;;;;;;8.23;3.22;;;;;;;5.35;81.76;101312.19;5094145;28;20030;-64
2023/01/31 11:17:17;;;;;;;7.97;3.35;;;;;;;5.26;82.53;101312.84;5093732;28;20489;-65
2023/01/31 11:19:48;;;;;;;6.00;3.70;;;;;;;5.12;83.86;101322.63;5093818;28;20031;-65
2023/01/31 11:22:24;;;;;;;8.00;3.33;;;;;;;5.12;83.75;101322.63;5093736;28;20032;-66
2023/01/31 11:24:51;;;;;;;6.47;2.95;;;;;;;5.00;83.82;101310.31;5093846;28;20036;-65
2023/01/31 11:27:27;;;;;;;7.68;4.07;;;;;;;5.02;82.77;101320.78;5093481;28;20085;-65
2023/01/31 11:29:56;;;;;;;4.93;2.88;;;;;;;5.12;83.41;101312.06;5093538;28;20036;-65
2023/01/31 11:32:28;;;;;;;6.13;3.30;;;;;;;5.20;83.64;101314.16;5093510;28;20047;-65
2023/01/31 11:35:24;;;;;;;4.93;2.90;;;;;;;5.22;84.86;101319.34;5093564;28;20069;-64
2023/01/31 11:37:55;;;;;;;6.55;2.80;;;;;;;5.18;84.82;101313.44;5093483;28;20036;-65
2023/01/31 11:40:41;;;;;;;4.55;2.95;;;;;;;5.05;85.58;101310.84;5093426;28;20032;-65
2023/01/31 11:43:12;;;;;;;7.15;2.90;;;;;;;5.21;85.38;101296.50;5093486;28;20055;-66
2023/01/31 11:45:43;;;;;;;11.18;3.95;;;;;;;5.09;86.05;101291.19;5093699;28;20036;-65
2023/01/31 11:48:17;;;;;;;6.43;2.75;;;;;;;4.93;85.83;101293.25;5093077;28;20392;-65
2023/01/31 11:50:45;;;;;;;12.25;3.20;;;;;;;4.83;86.31;101287.81;5093443;28;20458;-65
2023/01/31 11:53:22;;;;;;;5.65;3.08;;;;;;;4.74;86.18;101279.69;5093268;28;20039;-65
2023/01/31 11:55:50;;;;;;;6.38;2.70;;;;;;;4.79;86.76;101269.66;5093279;28;20036;-65
2023/01/31 11:58:19;;;;;;;;;;;;;;;4.84;86.08;101267.53;5093218;28;20040;-64
2023/01/31 12:00:54;;;;;;;7.25;3.33;;;;;;;4.80;86.34;101266.03;5093073;28;19976;-65
2023/01/31 12:03:19;;;;;;;6.15;3.83;;;;;;;4.81;87.11;101251.88;5074833;28;20135;-65
2023/01/31 12:05:50;;;;;;;6.30;2.90;;;;;;;4.75;86.93;101231.22;5093146;28;20077;-65
2023/01/31 12:08:40;;;;;;;5.05;2.80;;;;;;;4.79;86.09;101232.69;5092627;28;20161;-65
2023/01/31 12:11:08;;;;;;;3.83;2.40;;;;;;;4.70;86.53;101231.56;5092860;28;20060;-65
2023/01/31 12:13:59;;;;;;;7.32;3.13;;;;;;;4.73;86.64;101233.13;5074676;28;20101;-65
2023/01/31 12:16:27;;;;;;;6.55;2.88;;;;;;;4.62;86.37;101229.47;5092280;28;20100;-66
2023/01/31 12:19:48;;;;;;;5.00;2.25;;;;;;;4.67;87.54;101221.22;5073766;28;20044;-66
2023/01/31 12:22:31;;;;;;;5.38;3.22;;;;;;;4.79;87.08;101222.97;5086327;28;20067;-66
2023/01/31 12:25:15;;;;;;;4.53;2.55;;;;;;;4.84;85.88;101226.13;5092270;28;20495;-65
2023/01/31 12:28:00;;;;;;;5.03;2.97;;;;;;;4.87;86.32;101223.25;5073517;28;20040;-66
2023/01/31 12:31:00;;;;;;;6.28;3.17;;;;;;;4.92;86.11;101235.28;5091675;28;20039;-66
2023/01/31 12:33:50;;;;;;;3.55;2.25;;;;;;;4.86;85.26;101224.19;5092698;28;20043;-65
2023/01/31 12:36:33;;;;;;;7.10;2.65;;;;;;;4.81;84.99;101210.50;5092274;28;20043;-65
2023/01/31 12:39:16;;;;;;;4.63;3.03;;;;;;;4.78;84.16;101216.00;5091310;28;20031;-66
2023/01/31 12:41:53;;;;;;;6.55;2.97;;;;;;;4.75;83.77;101196.91;5090282;28;20078;-66
2023/01/31 12:44:40;;;;;;;8.80;2.45;;;;;;;4.65;84.41;101183.56;5092325;28;20036;-68
2023/01/31 12:47:28;;;;;;;4.13;2.17;;;;;;;4.74;84.23;101171.47;5091886;28;20068;-66
2023/01/31 12:50:11;;;;;;;4.43;2.55;;;;;;;4.73;84.41;101162.72;5091992;28;20035;-66
2023/01/31 12:52:43;;;;;;;4.03;2.15;;;;;;;4.75;83.91;101152.03;5092313;28;20545;-66
2023/01/31 12:55:17;;;;;;;3.25;2.22;;;;;;;4.76;83.34;101149.28;5092352;28;20038;-66
2023/01/31 12:57:54;;;;;;;4.45;2.20;;;;;;;4.76;83.79;101143.16;5091824;28;20089;-67
2023/01/31 13:00:38;;;;;;;2.63;2.05;;;;;;;4.80;84.39;101149.91;5073220;28;20082;-66
2023/01/31 13:03:37;;;;;;;4.20;2.22;;;;;;;4.81;82.70;101148.94;5091388;28;20046;-66
2023/01/31 13:06:14;;;;;;;2.17;1.63;;;;;;;4.87;82.88;101138.75;5090584;28;20032;-66
2023/01/31 13:08:46;;;;;;;3.80;1.88;;;;;;;4.82;82.25;101118.94;5090974;28;20034;-66
2023/01/31 13:11:18;;;;;;;5.25;2.05;;;;;;;4.88;81.95;101132.50;5091326;28;20035;-66
2023/01/31 13:13:46;;;;;;;3.63;1.67;;;;;;;4.94;81.40;101136.50;5091352;28;20119;-66
2023/01/31 13:16:15;;;;;;;3.35;2.00;;;;;;;4.95;82.17;101132.91;5091261;28;20054;-66
2023/01/31 13:18:45;;;;;;;3.40;1.77;;;;;;;4.95;81.87;101124.97;5087591;28;20105;-66
2023/01/31 13:21:16;;;;;;;4.57;2.88;;;;;;;5.00;81.50;101116.72;5071454;28;20037;-67
2023/01/31 13:23:46;;;;;;;2.65;1.73;;;;;;;4.95;79.76;101135.53;5071181;28;20036;-67
2023/01/31 13:26:46;;;;;;;3.22;1.83;;;;;;;4.98;80.71;101143.25;5070872;28;20028;-66
2023/01/31 13:29:14;;;;;;;4.13;1.85;;;;;;;4.98;80.19;101147.69;5050469;28;20044;-66
2023/01/31 13:32:20;;;;;;;3.58;1.67;;;;;;;4.95;80.66;101132.06;5070890;28;20073;-66
2023/01/31 13:34:50;;;;;;;2.60;1.88;;;;;;;5.01;80.76;101128.94;5063385;28;20063;-67
2023/01/31 13:37:24;;;;;;;4.53;2.45;;;;;;;5.05;80.75;101133.91;5070703;28;20401;-66
2023/01/31 13:39:54;;;;;;;3.55;1.77;;;;;;;5.06;80.18;101117.09;5070796;28;20060;-66
2023/01/31 13:42:20;;;;;;;3.22;1.42;;;;;;;5.11;79.75;101124.66;5071319;28;20557;-66
2023/01/31 13:44:48;;;;;;;4.03;1.73;;;;;;;5.09;80.01;101130.06;5077475;28;20128;-67
2023/01/31 13:47:32;;;;;;;2.08;1.30;;;;;;;5.09;80.74;101124.78;5074581;28;20039;-66
2023/01/31 13:50:19;;;;;;;4.55;2.25;;;;;;;5.05;80.10;101106.66;5074791;28;20438;-66
2023/01/31 13:52:50;;;;;;;1.67;1.30;;;;;;;5.03;79.77;101119.97;5074589;28;20188;-67
2023/01/31 13:55:31;;;;;;;1.92;1.38;;;;;;;5.02;80.33;101113.03;5074067;28;20166;-67
2023/01/31 13:58:18;;;;;;;2.83;1.10;;;;;;;5.09;80.22;101100.19;5074287;28;20043;-66
2023/01/31 14:00:47;;;;;;;5.07;1.88;;;;;;;5.05;79.92;101089.00;5073045;28;20051;-66
2023/01/31 14:03:16;;;;;;;1.63;1.45;;;;;;;5.07;80.90;101089.72;5074531;28;20190;-66
2023/01/31 14:05:41;;;;;;;4.63;1.60;;;;;;;5.07;80.73;101092.34;5056775;28;20555;-66
2023/01/31 14:08:25;;;;;;;5.75;2.17;;;;;;;5.10;81.12;101081.56;5074153;28;20115;-66
2023/01/31 14:10:51;;;;;;;3.42;1.48;;;;;;;5.13;81.03;101065.47;5056450;28;20037;-66
2023/01/31 14:13:35;;;;;;;2.50;1.52;;;;;;;5.14;81.60;101056.59;5074316;28;20036;-65
2023/01/31 14:16:01;;;;;;;1.83;1.60;;;;;;;5.11;81.65;101054.19;5074272;28;20043;-65
2023/01/31 14:18:43;;;;;;;3.03;1.77;;;;;;;5.13;81.82;101059.34;5073892;28;20036;-66
2023/01/31 14:21:27;;;;;;;3.15;2.20;;;;;;;5.14;82.58;101059.22;5074149;28;20393;-66
2023/01/31 14:23:53;;;;;;;6.20;1.80;;;;;;;5.21;82.41;101064.03;5056222;28;20036;-66
2023/01/31 14:26:51;;;;;;;2.58;1.60;;;;;;;5.19;81.93;101066.81;5074215;28;20047;-66
2023/01/31 14:29:20;;;;;;;2.47;1.65;;;;;;;5.25;82.51;101076.91;5073974;28;20028;-66
2023/01/31 14:31:47;;;;;;;2.38;1.70;;;;;;;5.20;82.05;101063.19;5073908;28;20040;-66
2023/01/31 14:34:32;;;;;;;2.53;1.73;;;;;;;5.33;81.84;101086.88;5073926;28;20095;-66
2023/01/31 14:37:15;;;;;;;3.28;1.60;;;;;;;5.34;82.01;101080.63;5056203;28;20539;-62
2023/01/31 14:39:46;;;;;;;3.10;1.65;;;;;;;5.37;82.02;101081.25;5073795;28;20047;-64
2023/01/31 14:42:19;;;;;;;2.88;1.90;;;;;;;5.41;81.46;101077.41;5073774;28;20039;-62
2023/01/31 14:45:23;;;;;;;7.68;2.53;;;;;;;5.41;81.74;101072.13;5073873;28;20079;-65
2023/01/31 14:47:58;;;;;;;3.95;2.03;;;;;;;5.46;82.60;101079.66;5073590;28;20045;-64
2023/01/31 14:51:21;;;;;;;2.63;1.75;;;;;;;5.44;81.47;101081.59;5074632;28;20036;-64
2023/01/31 14:54:05;;;;;;;5.25;2.03;;;;;;;5.44;80.83;101084.25;5011176;28;20034;-65
2023/01/31 14:56:54;;;;;;;3.28;1.73;;;;;;;5.47;81.56;101097.19;5011807;28;20044;-64
2023/01/31 14:59:28;;;;;;;2.53;1.80;;;;;;;5.42;81.08;101094.09;5057984;28;20067;-64
2023/01/31 15:01:56;;;;;;;5.00;2.33;;;;;;;5.45;82.81;101088.56;5073617;28;20186;-51
2023/01/31 15:04:24;;;;;;;1.95;1.65;;;;;;;5.39;82.16;101081.94;5073510;28;20096;-53
2023/01/31 15:06:52;;;;;;;4.13;2.08;;;;;;;5.43;83.03;101080.75;5073231;28;20036;-66
2023/01/31 15:09:17;;;;;;;2.30;1.60;;;;;;;5.49;81.86;101078.59;5072968;28;20089;-65
2023/01/31 15:11:46;;;;;;;3.15;1.67;;;;;;;5.44;81.76;101076.31;5073346;28;20103;-66
2023/01/31 15:14:35;;;;;;;4.95;2.00;;;;;;;5.44;81.97;101073.69;5073332;28;20109;-66
2023/01/31 15:17:07;;;;;;;2.08;1.88;;;;;;;5.44;81.98;101077.16;5073062;28;20028;-64
2023/01/31 15:19:48;;;;;;;4.03;1.70;;;;;;;5.34;82.67;101089.38;5072892;28;20032;-65
2023/01/31 15:22:16;;;;;;;2.00;1.77;;;;;;;5.36;82.11;101092.78;5072778;28;20056;-67
2023/01/31 15:24:49;;;;;;;2.92;1.83;;;;;;;5.36;82.43;101105.16;5072889;28;20497;-66
2023/01/31 15:27:31;;;;;;;3.83;2.00;;;;;;;5.34;82.61;101109.69;5072068;28;20079;-66
2023/01/31 15:30:12;;;;;;;4.57;2.10;;;;;;;5.34;83.37;101115.81;5054576;28;20168;-66
2023/01/31 15:32:44;;;;;;;2.65;1.98;;;;;;;5.31;82.24;101115.22;5072992;28;20500;-66
2023/01/31 15:35:24;;;;;;;2.58;1.70;;;;;;;5.26;83.72;101114.72;5073288;28;20024;-67
2023/01/31 15:37:57;;;;;;;1.75;1.58;;;;;;;5.28;83.71;101112.78;5053668;28;20036;-65
2023/01/31 15:40:27;;;;;;;2.92;2.13;;;;;;;5.28;83.73;101118.94;5072641;28;20032;-66
2023/01/31 15:43:16;;;;;;;2.28;1.85;;;;;;;5.38;84.12;101125.19;5053834;28;20040;-65
2023/01/31 15:45:42;;;;;;;3.63;2.00;;;;;;;5.31;83.18;101128.44;5072647;28;20040;-66
2023/01/31 15:48:13;;;;;;;3.17;1.60;;;;;;;5.27;83.85;101127.81;5071824;28;20102;-67
2023/01/31 15:50:55;;;;;;;2.42;1.48;;;;;;;5.25;83.60;101123.63;5072514;28;20090;-67
2023/01/31 15:53:26;;;;;;;4.90;2.28;;;;;;;5.27;83.29;101126.97;5072148;28;20063;-66
2023/01/31 15:55:55;;;;;;;6.55;2.22;;;;;;;5.24;83.73;101119.28;5072357;28;20375;-66
2023/01/31 15:58:23;;;;;;;3.53;1.90;;;;;;;5.27;82.76;101111.13;5071977;28;20094;-65
2023/01/31 16:00:51;;;;;;;2.00;1.17;;;;;;;5.20;83.51;101104.63;5072219;28;20045;-65
2023/01/31 16:03:23;;;;;;;2.95;1.85;;;;;;;5.21;83.25;101107.16;5072180;28;20039;-63
2023/01/31 16:05:51;;;;;;;6.47;1.73;;;;;;;5.27;83.08;101105.84;5071360;28;20032;-63
2023/01/31 16:08:33;;;;;;;1.77;1.45;;;;;;;5.25;83.02;101107.75;5071793;28;20127;-64
2023/01/31 16:11:08;;;;;;;3.35;1.40;;;;;;;5.21;82.82;101101.03;5054525;28;20116;-62
2023/01/31 16:13:37;;;;;;;3.17;1.73;;;;;;;5.24;83.02;101101.66;5072140;28;20446;-64
2023/01/31 16:16:06;;;;;;;3.65;1.90;;;;;;;5.22;83.73;101102.72;5071950;28;20473;-64
2023/01/31 16:18:34;;;;;;;3.72;1.83;;;;;;;5.26;82.93;101106.81;5071651;28;20040;-65
2023/01/31 16:21:16;;;;;;;2.42;1.38;;;;;;;5.27;82.60;101111.13;5072393;28;20127;-65
2023/01/31 16:23:42;;;;;;;2.97;1.88;;;;;;;5.27;83.35;101127.81;5071935;28;20032;-64
2023/01/31 16:26:27;;;;;;;3.55;2.13;;;;;;;5.23;84.01;101123.75;5071795;28;20058;-63
2023/01/31 16:28:58;;;;;;;2.08;1.48;;;;;;;5.26;83.45;101125.28;5071408;28;20037;-63
2023/01/31 16:31:32;;;;;;;2.30;1.45;;;;;;;5.27;82.88;101143.66;5071825;28;20056;-65
2023/01/31 16:34:00;;;;;;;5.70;1.75;;;;;;;5.28;83.31;101139.22;5071665;28;20059;-66
2023/01/31 16:36:32;;;;;;;5.93;2.03;;;;;;;5.28;83.07;101137.44;5071620;28;20025;-66
2023/01/31 16:39:01;;;;;;;4.95;2.03;;;;;;;5.28;82.96;101144.50;5071299;28;20036;-66
2023/01/31 16:41:47;;;;;;;3.28;1.60;;;;;;;5.30;82.42;101142.59;5071543;28;20103;-65
2023/01/31 16:44:19;;;;;;;3.05;1.98;;;;;;;5.34;82.36;101149.31;5071300;28;20043;-65
2023/01/31 16:46:47;;;;;;;4.57;1.88;;;;;;;5.33;82.51;101143.19;5072088;28;20032;-65
2023/01/31 16:49:20;;;;;;;1.48;1.30;;;;;;;5.32;82.38;101149.44;5071816;28;20123;-64
2023/01/31 16:51:47;;;;;;;3.10;2.25;;;;;;;5.33;82.37;101137.06;5072345;28;20551;-64
2023/01/31 16:54:22;;;;;;;1.52;1.20;;;;;;;5.31;82.50;101133.72;5054694;28;20094;-64
2023/01/31 16:57:19;;;;;;;2.03;1.48;;;;;;;5.36;81.94;101142.97;5072101;28;20032;-64
2023/01/31 16:59:48;;;;;;;7.10;2.20;;;;;;;5.37;82.33;101141.16;5072156;28;20036;-63
2023/01/31 17:02:23;;;;;;;2.58;1.73;;;;;;;5.36;82.36;101134.22;5071989;28;20116;-63
2023/01/31 17:04:51;;;;;;;2.15;1.67;;;;;;;5.35;82.23;101133.38;5072056;28;20040;-64
2023/01/31 17:07:32;;;;;;;2.83;1.70;;;;;;;5.33;82.51;101129.16;5037194;28;20024;-64
2023/01/31 17:10:00;;;;;;;2.22;1.50;;;;;;;5.35;82.67;101135.19;5072241;28;20051;-64
2023/01/31 17:12:28;;;;;;;2.13;1.70;;;;;;;5.37;82.18;101136.72;5072127;28;20028;-64
2023/01/31 17:14:58;;;;;;;2.17;1.40;;;;;;;5.37;82.98;101138.53;5072234;28;20035;-64
2023/01/31 17:17:29;;;;;;;3.35;1.77;;;;;;;5.38;82.65;101141.03;5071571;28;20063;-65